Date,TemperatureHighF,TemperatureAvgF,TemperatureLowF,DewpointHighF,DewpointAvgF,DewpointLowF,HumidityHigh,HumidityAvg,HumidityLow,PressureMaxIn,PressureMinIn,WindSpeedMaxMPH,WindSpeedAvgMPH,GustSpeedMaxMPH,PrecipitationSumIn
2013-1-28,50.2,46.8,43.0,36.9,35.9,35.2,76,66,59,30.26,30.22,5,0,11,0.00
2013-1-29,55.6,46.2,38.7,39.6,36.6,33.4,83,70,52,30.32,30.23,14,2,19,0.00
2013-1-30,60.4,49.9,41.5,44.4,40.6,36.1,82,71,54,30.35,30.26,11,1,13,0.00
2013-1-31,64.2,52.2,43.9,46.0,42.7,39.4,86,71,47,30.30,30.18,7,0,11,0.00
2013-2-1,66.4,54.1,44.2,46.6,42.3,36.3,80,66,45,30.22,30.12,2,0,6,0.00
2013-2-2,65.3,54.1,48.7,48.7,44.6,42.4,84,71,47,30.27,30.18,2,0,3,0.00
2013-2-3,63.3,51.3,42.4,48.2,44.0,39.7,93,77,50,30.22,30.10,6,0,13,0.00
2013-2-4,63.7,52.9,44.8,49.5,45.0,40.1,86,75,57,30.17,30.04,7,0,11,0.00
2013-2-5,52.9,47.1,41.4,45.1,42.9,39.7,95,86,71,30.12,30.03,14,2,16,0.00
2013-2-6,59.7,47.2,37.0,41.9,38.8,33.8,94,74,44,30.17,30.09,7,1,11,0.00
2013-2-7,52.9,46.1,40.8,43.5,39.4,33.8,88,78,60,30.16,29.98,13,2,20,0.02
2013-2-8,54.5,45.3,37.8,39.2,33.3,23.2,89,65,39,29.98,29.89,15,4,20,0.00
2013-2-9,54.0,43.8,31.8,38.5,32.3,23.7,79,64,43,30.09,29.93,13,2,18,0.00
2013-2-10,57.2,47.4,38.8,38.1,35.0,28.9,81,63,41,30.13,29.99,9,1,13,0.00
2013-2-11,59.0,48.2,38.8,38.7,32.7,23.7,70,55,39,30.24,30.04,6,0,10,0.00
2013-2-12,61.3,51.0,43.3,38.1,35.8,33.3,70,57,40,30.36,30.23,6,0,10,0.00
2013-2-13,61.9,50.7,42.4,41.5,38.2,34.7,76,63,44,30.32,30.20,5,0,10,0.00
2013-2-14,63.9,53.6,43.5,46.9,42.1,37.4,80,66,50,30.25,30.15,8,1,13,0.00
2013-2-15,70.0,56.9,47.8,45.3,42.5,37.6,77,60,31,30.29,30.20,5,0,6,0.00
2013-2-16,67.8,56.7,47.7,44.8,40.5,36.7,68,55,36,30.25,30.01,4,0,7,0.00
2013-2-17,63.7,54.0,44.1,44.2,40.1,33.8,74,60,46,30.01,29.93,9,1,12,0.00
2013-2-18,57.7,49.6,43.2,45.1,40.6,37.2,81,71,62,30.00,29.89,19,3,20,0.00
2013-2-19,45.3,41.1,36.0,40.1,36.8,33.4,93,85,76,29.93,29.73,25,4,27,0.34
2013-2-20,57.7,43.1,30.2,39.0,32.9,28.9,95,71,39,30.02,29.80,16,2,19,0.01
2013-2-21,58.1,47.7,40.5,39.2,34.3,29.1,82,62,38,30.14,30.02,16,2,19,0.00
2013-2-22,59.5,49.9,39.7,40.5,35.8,30.0,72,59,45,30.24,30.13,11,2,14,0.00
2013-2-23,57.4,49.9,44.6,43.7,33.7,19.9,89,58,31,30.21,30.12,19,5,22,0.00
2013-2-24,62.1,49.1,35.8,33.1,27.4,21.9,71,44,27,30.24,30.14,11,1,15,0.00
2013-2-25,62.4,54.1,46.8,39.2,33.1,28.4,63,46,34,30.25,30.14,11,2,15,0.00
2013-2-26,64.0,51.1,36.3,34.0,29.9,18.9,78,47,20,30.19,30.09,20,4,25,0.00
2013-2-27,66.9,55.6,45.5,41.9,32.7,20.1,52,42,30,30.33,30.18,10,2,14,0.00
2013-2-28,68.9,58.9,48.0,41.7,37.8,32.9,60,46,33,30.41,30.33,13,1,16,0.00
2013-3-1,72.9,59.3,47.7,46.8,43.5,39.4,74,57,37,30.40,30.23,10,1,12,0.00
2013-3-2,70.7,61.9,54.3,49.1,45.9,41.9,68,57,41,30.24,30.04,6,0,9,0.00
2013-3-3,61.0,56.9,50.4,52.9,48.4,45.9,85,73,65,30.06,29.99,12,2,16,0.00
2013-3-4,64.6,52.4,44.1,51.6,46.5,41.7,95,81,60,30.12,30.01,12,2,15,0.00
2013-3-5,60.6,51.0,43.2,44.1,40.6,25.9,88,69,32,30.04,29.83,15,3,24,0.04
2013-3-6,56.1,49.0,45.0,44.6,40.9,37.6,92,74,52,30.06,29.84,30,6,34,0.70
2013-3-7,57.0,48.4,40.3,41.5,38.9,36.7,87,71,49,29.99,29.85,10,1,14,0.00
2013-3-8,63.3,50.2,40.5,43.5,39.4,35.1,90,69,36,30.01,29.80,9,1,18,0.00
2013-3-9,66.9,53.5,41.5,44.2,37.9,32.0,89,60,30,30.27,30.02,19,3,23,0.00
2013-3-10,64.2,53.9,44.1,46.4,40.4,26.2,83,61,35,30.34,30.24,10,2,13,0.00
2013-3-11,70.3,58.1,46.9,47.3,44.3,40.6,80,62,41,30.25,30.08,6,1,12,0.00
2013-3-12,75.4,62.0,52.3,50.0,46.6,43.3,75,58,38,30.15,30.04,6,0,11,0.00
2013-3-13,77.7,65.0,55.0,52.5,49.4,46.2,75,58,37,30.15,30.05,6,0,10,0.00
2013-3-14,77.7,66.5,58.1,54.9,49.7,44.8,71,56,38,30.13,30.04,7,0,11,0.00
2013-3-15,75.0,61.8,53.1,51.3,48.6,45.9,84,64,40,30.08,29.98,9,1,12,0.00
2013-3-16,73.8,61.1,49.8,51.6,46.3,41.0,88,61,32,30.05,29.96,11,1,13,0.00
2013-3-17,68.2,56.6,45.0,43.9,39.9,35.4,78,56,34,30.10,29.99,10,1,13,0.00
2013-3-18,67.5,57.9,48.2,44.2,40.6,36.7,72,54,36,30.08,29.99,7,0,7,0.00
2013-3-19,70.0,58.6,50.4,50.7,45.1,40.8,91,63,35,30.12,30.03,12,1,17,0.17
2013-3-20,60.6,55.2,51.6,54.9,51.7,48.9,95,88,73,30.10,30.06,18,2,23,0.44
2013-3-21,63.9,53.9,47.7,50.2,43.9,31.6,96,73,33,30.09,29.97,14,2,19,0.00
2013-3-22,62.4,51.3,39.9,39.0,32.0,23.4,87,53,25,30.06,29.97,24,6,25,0.00
2013-3-23,67.1,51.1,36.7,37.6,33.0,29.8,84,54,25,30.13,30.02,6,1,13,0.00
2013-3-24,72.7,59.6,48.9,43.3,37.3,31.1,60,44,29,30.07,29.93,6,1,12,0.00
2013-3-25,67.8,57.9,48.9,48.9,44.0,40.5,75,60,46,29.98,29.87,13,2,16,0.00
2013-3-26,71.2,56.3,44.4,50.5,44.7,40.3,87,67,41,29.97,29.89,10,2,14,0.00
2013-3-27,68.7,58.1,49.3,53.1,48.1,43.2,82,70,54,30.00,29.91,16,3,19,0.00
2013-3-28,68.0,59.4,53.6,52.0,49.6,47.3,86,71,51,30.08,30.00,12,1,14,0.00
2013-3-29,79.0,63.8,50.4,52.0,47.5,44.1,86,58,33,30.08,29.99,9,1,9,0.00
2013-3-30,74.1,64.2,55.2,55.2,49.9,45.0,74,60,47,30.01,29.93,14,2,15,0.00
2013-3-31,69.4,58.2,52.5,54.7,50.6,46.4,95,78,47,30.08,29.96,17,2,20,0.78
2013-4-1,69.3,58.4,50.9,52.2,49.5,46.6,91,74,49,30.14,30.04,12,1,15,0.00
2013-4-2,71.1,59.1,48.4,53.1,48.6,43.7,90,70,45,30.15,30.04,12,2,14,0.00
2013-4-3,77.0,62.5,51.6,53.8,50.9,47.8,90,68,41,30.11,29.94,6,0,10,0.00
2013-4-4,64.0,57.2,50.5,57.0,51.7,42.6,94,82,57,30.11,29.95,16,2,21,0.25
2013-4-5,66.7,58.1,52.3,52.2,50.5,48.6,92,77,54,30.15,30.08,10,2,13,0.00
2013-4-6,65.5,56.4,50.0,54.5,50.7,47.1,90,82,66,30.17,30.08,11,2,13,0.00
2013-4-7,65.3,55.9,49.3,54.5,49.2,44.2,91,79,66,30.13,29.78,23,5,29,0.00
2013-4-8,66.0,55.1,45.9,46.8,39.2,28.8,94,60,25,29.97,29.71,27,7,31,0.23
2013-4-9,71.8,60.3,46.4,39.9,36.3,30.6,70,42,27,30.06,29.97,23,6,29,0.00
2013-4-10,82.9,70.0,58.6,54.5,42.5,29.3,67,38,26,30.16,29.93,15,3,20,0.00
2013-4-11,75.6,64.5,55.2,52.5,46.9,39.2,81,56,28,29.96,29.78,16,2,18,0.00
2013-4-12,79.5,64.5,51.4,51.8,46.7,41.0,72,54,32,29.86,29.76,7,1,11,0.00
2013-4-13,74.7,63.0,51.3,53.6,48.3,42.4,76,60,43,29.84,29.74,9,1,15,0.00
2013-4-14,73.8,58.5,46.4,48.9,41.8,29.7,89,59,22,29.87,29.71,12,2,18,0.00
2013-4-15,61.0,50.3,43.7,47.3,43.2,39.4,92,77,53,29.88,29.78,19,3,27,0.12
2013-4-16,64.8,51.8,38.7,40.1,32.8,25.0,91,54,23,30.13,29.88,23,5,33,0.00
2013-4-17,66.6,57.6,48.9,30.7,26.5,21.7,39,31,24,30.22,30.13,21,7,25,0.00
2013-4-18,74.7,60.8,44.2,39.6,31.0,22.6,52,34,18,30.25,30.16,13,2,17,0.00
2013-4-19,80.4,67.0,54.7,47.3,40.8,33.3,57,39,27,30.21,30.02,10,1,14,0.00
2013-4-20,79.3,65.3,51.1,48.7,42.2,34.0,76,47,22,30.06,29.93,14,2,20,0.00
2013-4-21,83.5,70.1,55.0,50.0,43.9,38.8,64,41,22,30.00,29.89,10,1,14,0.00
2013-4-22,85.5,70.5,55.9,51.1,44.1,38.5,68,41,20,29.93,29.80,13,2,18,0.00
2013-4-23,82.9,67.5,51.4,43.3,37.1,31.5,61,35,17,29.90,29.80,14,2,14,0.00
2013-4-24,87.3,67.4,51.8,50.5,41.4,33.8,79,44,15,29.84,29.70,12,2,16,0.00
2013-4-25,73.6,59.3,49.5,51.3,48.3,45.3,87,69,43,30.08,29.84,18,4,24,0.00
2013-4-26,82.2,63.5,48.7,53.4,49.3,45.0,87,63,34,30.18,30.07,8,1,13,0.00
2013-4-27,86.2,68.6,51.3,55.6,51.5,46.6,84,58,32,30.18,30.00,10,1,10,0.00
2013-4-28,88.5,72.3,55.0,53.4,50.5,46.4,80,50,27,30.00,29.83,11,1,14,0.00
2013-4-29,87.4,74.0,58.3,56.5,49.9,44.2,75,45,23,29.85,29.70,12,2,16,0.00
2013-4-30,81.0,69.4,59.4,50.4,40.3,29.5,67,38,17,29.80,29.70,18,4,24,0.00
2013-5-1,87.4,71.4,53.2,37.9,32.9,21.7,45,26,14,30.04,29.80,12,3,19,0.00
2013-5-2,90.1,75.9,62.2,39.6,31.7,19.2,33,21,13,30.13,30.02,14,2,19,0.00
2013-5-3,89.2,76.6,62.4,49.6,42.1,36.3,47,30,18,30.03,29.74,12,1,15,0.00
2013-5-4,88.3,76.6,61.9,47.7,39.6,28.6,57,28,15,29.74,29.46,12,2,19,0.00
2013-5-5,73.9,62.7,52.2,48.7,46.9,44.2,82,58,37,29.78,29.52,18,2,22,0.00
2013-5-6,70.2,61.6,55.2,52.9,50.4,48.0,86,68,47,29.93,29.78,11,2,16,0.04
2013-5-7,70.2,62.0,55.0,54.1,52.1,49.6,91,71,51,30.00,29.93,11,1,14,0.01
2013-5-8,75.0,63.5,54.9,54.1,50.6,48.2,89,65,40,30.09,29.99,11,2,14,0.03
2013-5-9,81.9,64.0,50.5,56.8,52.0,47.7,90,68,39,30.10,29.99,14,2,17,0.00
2013-5-10,87.3,68.0,51.4,59.7,54.1,48.2,92,64,38,30.14,30.01,11,2,14,0.00
2013-5-11,92.3,76.3,58.6,61.2,56.8,51.6,79,54,34,30.08,29.98,7,1,11,0.00
2013-5-12,93.7,78.5,62.6,57.6,50.7,40.1,79,43,17,30.07,29.94,13,2,15,0.00
2013-5-13,93.0,76.8,63.3,55.8,48.5,41.5,60,39,20,30.01,29.86,13,3,18,0.00
2013-5-14,88.9,72.9,58.6,55.8,52.4,47.5,76,51,30,29.89,29.81,12,3,21,0.00
2013-5-15,77.9,65.4,54.7,49.6,46.1,42.8,66,51,33,29.98,29.89,15,4,18,0.00
2013-5-16,71.6,61.0,53.8,53.2,49.2,45.5,81,66,46,29.98,29.88,20,4,23,0.00
2013-5-17,75.4,60.8,49.5,50.4,44.7,37.6,86,59,26,30.03,29.92,14,2,19,0.00
2013-5-18,81.1,64.4,48.7,49.5,44.2,39.0,76,52,23,30.09,30.00,9,1,14,0.00
2013-5-19,81.9,69.5,52.7,50.0,46.2,42.4,76,46,27,30.06,29.91,17,4,23,0.00
2013-5-20,89.6,74.5,57.0,45.9,39.5,29.8,52,30,14,29.96,29.85,11,1,16,0.00
2013-5-21,80.2,68.2,55.8,47.8,42.8,37.9,64,41,24,29.89,29.81,21,5,26,0.00
2013-5-22,69.6,57.5,46.2,43.9,30.3,21.0,68,38,16,29.94,29.83,20,4,23,0.00
2013-5-23,73.8,59.7,46.0,42.8,38.0,25.0,76,49,18,29.95,29.85,12,2,19,0.00
2013-5-24,78.6,63.9,50.2,43.3,39.3,30.9,61,43,21,29.97,29.86,14,2,19,0.00
2013-5-25,77.2,62.2,49.3,46.9,42.9,39.7,73,52,27,29.98,29.90,15,2,16,0.00
2013-5-26,78.1,62.3,50.7,51.1,48.0,45.0,84,62,32,30.06,29.97,16,3,20,0.00
2013-5-27,63.9,58.2,51.3,53.8,49.1,45.7,93,72,58,30.07,29.97,13,3,18,0.06
2013-5-28,77.7,65.0,55.0,56.1,53.0,49.1,94,69,39,29.98,29.85,10,1,13,0.01
2013-5-29,80.4,72.6,62.8,54.5,51.6,46.9,68,49,33,29.91,29.81,15,2,17,0.03
2013-5-30,84.7,69.2,54.1,53.6,48.8,43.0,82,52,25,29.92,29.86,14,2,17,0.00
2013-5-31,90.0,73.8,55.0,49.1,46.0,42.6,69,41,22,29.95,29.84,17,3,21,0.00
2013-6-1,94.6,80.8,62.8,51.6,47.3,42.6,57,33,18,29.85,29.69,10,1,13,0.00
2013-6-2,97.2,80.7,63.0,54.9,50.8,47.3,64,38,19,29.70,29.57,8,1,14,0.00
2013-6-3,93.7,74.6,60.3,57.4,52.7,49.1,70,48,27,29.75,29.62,13,3,17,0.00
2013-6-4,83.3,66.6,54.1,56.7,52.4,48.7,83,62,39,29.86,29.75,16,4,19,0.00
2013-6-5,89.1,68.3,52.3,58.6,53.0,48.2,86,61,34,29.94,29.81,11,2,15,0.00
2013-6-6,94.5,73.2,54.9,61.2,54.9,48.4,82,56,31,29.87,29.74,12,1,16,0.00
2013-6-7,102.0,81.0,61.0,64.8,56.6,48.9,78,48,23,29.80,29.65,12,2,15,0.00
2013-6-8,106.0,88.8,71.4,63.5,57.2,50.7,56,36,21,29.68,29.57,10,2,14,0.00
2013-6-9,79.9,68.6,59.9,56.5,54.3,52.0,76,62,43,29.82,29.65,21,5,24,0.00
2013-6-10,73.6,63.2,55.2,53.6,52.0,50.9,86,68,47,29.91,29.78,16,3,20,0.00
2013-6-11,85.3,70.0,55.4,56.3,53.3,50.0,85,58,35,29.94,29.83,11,1,14,0.00
2013-6-12,87.4,72.6,58.8,53.6,49.0,39.7,73,46,21,29.91,29.84,14,2,21,0.00
2013-6-13,84.0,70.3,55.0,47.3,41.7,32.4,65,39,17,30.03,29.91,13,2,15,0.00
2013-6-14,87.6,72.9,54.0,45.7,41.1,35.6,57,34,19,29.92,29.76,8,1,12,0.00
2013-6-15,89.4,74.6,62.1,51.8,44.1,38.5,57,36,17,29.89,29.76,14,2,17,0.00
2013-6-16,91.8,73.6,57.4,52.9,47.8,42.8,66,43,20,29.99,29.88,11,2,16,0.00
2013-6-17,87.3,71.6,58.8,53.6,49.4,45.9,70,48,24,30.00,29.91,14,4,21,0.00
2013-6-18,77.2,64.0,54.1,51.3,49.0,45.3,86,61,33,29.96,29.87,18,5,26,0.00
2013-6-19,77.4,64.9,52.5,48.7,43.5,32.4,80,51,20,30.01,29.93,12,2,20,0.00
2013-6-20,83.8,69.4,53.8,48.6,44.7,35.2,72,44,18,29.94,29.86,11,2,16,0.00
2013-6-21,86.7,72.9,55.8,49.8,46.1,43.7,66,41,24,29.91,29.83,11,1,14,0.00
2013-6-22,92.7,76.6,59.4,51.8,45.5,34.2,61,36,13,29.86,29.75,15,2,17,0.00
2013-6-23,75.9,66.7,58.6,59.2,54.1,44.8,84,65,41,29.81,29.73,23,6,24,0.00
2013-6-24,67.6,62.2,60.1,61.2,58.3,55.9,94,87,73,29.90,29.75,10,1,13,0.28
2013-6-25,74.8,66.7,61.0,66.9,62.3,58.5,96,86,71,29.97,29.87,15,1,22,0.21
2013-6-26,88.5,74.9,61.3,64.6,61.4,57.4,94,66,41,30.01,29.93,11,2,18,0.00
2013-6-27,95.4,79.7,63.1,64.9,60.3,54.5,85,55,29,30.03,29.94,12,1,15,0.00
2013-6-28,102.7,86.6,70.2,65.5,60.3,52.7,76,45,20,29.97,29.81,10,1,16,0.00
2013-6-29,104.0,90.6,73.6,66.2,60.2,54.0,62,38,20,29.85,29.71,11,2,14,0.00
2013-6-30,106.2,90.7,73.8,62.2,58.7,54.5,60,36,19,29.76,29.65,9,1,12,0.00
2013-7-1,104.5,89.1,72.3,65.8,59.3,51.8,62,39,19,29.77,29.69,8,1,14,0.00
2013-7-2,104.5,90.1,78.6,64.9,60.1,52.0,53,38,24,29.83,29.71,18,4,22,0.00
2013-7-3,105.3,86.9,71.2,66.7,60.2,52.2,60,42,26,29.83,29.67,14,2,17,0.00
2013-7-4,107.2,90.1,76.5,67.8,63.3,56.8,67,44,20,29.68,29.55,11,2,15,0.00
2013-7-5,90.1,77.9,66.0,56.7,51.7,44.8,59,41,30,29.68,29.59,15,4,19,0.00
2013-7-6,91.8,73.5,58.6,57.4,52.7,47.5,78,51,29,29.74,29.65,10,2,14,0.00
2013-7-7,96.1,78.1,61.3,56.1,48.3,31.1,68,39,18,29.78,29.69,11,2,16,0.00
2013-7-8,96.3,78.3,60.3,51.6,43.8,32.2,64,32,14,29.90,29.78,11,2,15,0.00
2013-7-9,100.9,84.8,69.1,52.0,45.4,33.4,49,27,15,29.97,29.86,12,2,14,0.00
2013-7-10,98.6,83.4,69.1,54.3,46.2,38.5,49,29,16,29.88,29.79,15,3,17,0.00
2013-7-11,92.1,75.4,58.3,51.3,44.2,35.6,64,36,15,29.85,29.78,13,3,19,0.00
2013-7-12,91.0,73.0,54.9,53.8,50.7,46.2,83,50,22,29.88,29.79,13,2,16,0.00
2013-7-13,96.3,79.5,61.3,52.0,46.4,38.7,57,34,14,29.90,29.82,10,1,15,0.00
2013-7-14,97.2,79.5,63.9,52.3,48.4,44.8,54,36,19,29.91,29.78,9,2,15,0.00
2013-7-15,89.2,72.4,56.8,54.1,48.3,40.1,75,45,20,29.83,29.73,13,4,17,0.00
2013-7-16,81.5,65.4,53.4,53.8,51.6,48.6,90,64,35,29.98,29.79,13,3,17,0.00
2013-7-17,92.7,71.9,54.5,56.8,51.7,38.7,89,56,16,30.04,29.94,9,1,12,0.00
2013-7-18,96.8,78.4,58.3,55.6,49.4,38.8,76,42,14,29.99,29.84,10,1,13,0.00
2013-7-19,100.0,81.5,61.9,56.5,51.3,45.1,64,37,18,29.86,29.71,12,1,14,0.00
2013-7-20,101.8,82.3,64.9,59.2,54.6,50.5,62,41,22,29.76,29.62,11,2,15,0.00
2013-7-21,95.5,80.0,64.0,58.1,52.5,46.0,66,40,25,29.81,29.68,14,3,19,0.00
2013-7-22,92.8,77.1,64.2,54.7,49.9,37.9,68,41,17,29.90,29.81,18,2,22,0.00
2013-7-23,92.8,79.0,68.5,53.1,46.6,34.0,47,33,15,29.95,29.82,12,3,17,0.00
2013-7-24,99.0,82.2,66.0,59.4,51.7,41.7,49,36,25,29.91,29.80,10,2,14,0.00
2013-7-25,99.5,83.5,69.8,61.3,55.7,50.2,54,40,28,29.91,29.82,14,3,17,0.00
2013-7-26,97.5,79.5,65.8,59.7,53.7,48.9,56,42,27,30.00,29.88,14,4,17,0.00
2013-7-27,93.4,76.6,59.5,59.4,53.8,47.7,74,47,30,29.91,29.76,14,4,18,0.00
2013-7-28,93.0,74.9,60.6,58.6,53.5,46.8,74,49,30,29.79,29.70,12,3,18,0.00
2013-7-29,84.0,67.7,54.7,54.1,51.7,48.0,85,59,32,29.94,29.75,13,3,17,0.00
2013-7-30,91.8,71.3,55.2,57.2,52.2,43.0,84,56,24,30.04,29.92,10,2,14,0.00
2013-7-31,90.0,72.0,56.5,54.0,50.2,41.7,77,50,19,30.01,29.89,16,4,17,0.00
2013-8-1,87.6,71.6,57.0,53.1,47.8,44.4,69,45,23,29.99,29.88,14,3,19,0.00
2013-8-2,92.3,74.7,57.2,53.1,49.2,45.7,75,44,21,29.91,29.80,11,1,17,0.00
2013-8-3,92.7,75.5,57.7,54.0,49.2,43.3,68,42,19,29.90,29.81,12,2,13,0.00
2013-8-4,91.2,73.3,56.8,53.6,50.3,43.3,79,48,20,29.93,29.84,12,2,13,0.00
2013-8-5,91.9,71.9,53.8,54.5,49.6,42.3,90,51,21,29.96,29.84,12,3,16,0.00
2013-8-6,87.1,68.5,54.1,54.3,51.4,47.7,86,58,26,29.97,29.88,16,3,19,0.00
2013-8-7,78.8,64.6,55.2,57.6,54.2,52.2,91,71,41,30.05,29.96,15,4,19,0.00
2013-8-8,84.7,67.2,54.3,56.3,53.1,47.7,92,65,31,29.99,29.85,12,2,15,0.00
2013-8-9,83.5,67.2,53.1,55.2,52.5,47.1,92,63,29,29.93,29.85,15,3,19,0.00
2013-8-10,87.1,69.1,54.3,56.7,54.1,52.0,92,63,31,29.99,29.91,12,2,15,0.00
2013-8-11,90.3,72.7,57.0,57.4,53.9,49.1,86,56,25,29.97,29.84,11,1,13,0.00
2013-8-12,91.2,75.4,61.2,53.2,49.5,43.0,68,44,21,29.94,29.86,13,2,15,0.00
2013-8-13,95.7,78.2,60.4,54.5,49.1,44.1,62,38,21,29.94,29.83,9,1,12,0.00
2013-8-14,97.3,79.1,62.4,54.3,49.7,44.4,60,38,20,29.91,29.80,12,1,14,0.00
2013-8-15,95.9,78.3,61.3,61.0,55.5,50.7,73,49,24,29.90,29.83,14,2,16,0.00
2013-8-16,98.1,81.0,65.8,60.1,55.3,45.7,74,45,20,29.92,29.84,11,2,17,0.00
2013-8-17,96.6,79.5,64.9,59.5,53.3,48.0,56,42,21,29.91,29.76,15,1,22,0.00
2013-8-18,100.2,82.7,65.8,60.1,57.2,52.9,71,45,21,29.83,29.70,7,0,10,0.00
2013-8-19,100.4,87.3,76.8,64.8,59.7,56.3,52,40,26,29.83,29.70,12,1,24,0.00
2013-8-20,96.6,80.2,67.5,62.6,56.7,52.7,64,46,31,29.82,29.71,12,2,17,0.00
2013-8-21,70.5,66.3,62.2,55.9,51.3,48.0,67,59,52,29.85,29.78,12,3,15,0.00
2013-9-1,90.3,81.1,72.0,57.4,52.7,50.4,57,38,27,29.84,29.78,13,3,17,0.00
2013-9-2,79.2,70.5,65.7,65.1,60.0,55.9,91,70,51,29.90,29.82,12,1,12,0.08
2013-9-3,85.8,72.1,62.2,60.1,55.1,48.9,81,58,31,29.93,29.84,12,3,16,0.00
2013-9-4,88.2,72.0,60.4,56.5,53.2,45.9,79,55,24,29.97,29.85,14,2,15,0.00
2013-9-5,86.5,71.2,59.7,55.6,52.6,45.5,78,55,24,29.94,29.85,13,2,19,0.00
2013-9-6,90.9,73.9,54.9,52.9,47.4,41.7,73,44,19,29.92,29.78,12,1,14,0.00
2013-9-7,96.8,82.3,69.6,51.4,46.6,40.3,41,29,20,29.83,29.73,10,0,12,0.00
2013-9-8,97.2,82.4,64.9,53.6,48.9,43.0,54,33,19,29.79,29.66,11,2,15,0.00
2013-9-9,98.1,83.8,66.6,54.9,49.3,43.3,46,31,22,29.72,29.58,8,1,13,0.00
2013-9-10,89.1,75.5,62.2,59.4,53.9,48.7,80,49,34,29.81,29.61,14,4,18,0.00
2013-9-11,82.0,67.6,58.6,58.8,56.6,54.9,89,70,43,29.93,29.81,12,2,17,0.00
2013-9-12,87.8,70.8,58.6,61.0,57.7,55.0,92,67,36,29.93,29.79,10,2,11,0.00
2013-9-13,91.2,74.3,60.6,61.5,57.5,52.3,84,59,35,29.82,29.65,9,1,12,0.00
2013-9-14,89.8,73.0,59.4,58.8,54.8,51.3,77,55,35,29.73,29.63,10,2,13,0.00
2013-9-15,87.4,70.0,56.7,55.6,51.7,45.1,78,56,24,29.79,29.67,14,3,17,0.00
2013-9-16,87.3,71.5,59.7,57.7,54.7,51.4,84,59,32,29.83,29.69,10,2,12,0.00
2013-9-17,79.5,67.6,56.7,53.8,51.8,46.4,84,59,36,29.82,29.73,18,3,22,0.00
2013-9-18,82.2,68.2,53.8,52.0,46.8,43.0,74,49,27,29.86,29.75,13,2,16,0.00
2013-9-19,90.7,74.9,59.9,46.8,43.6,41.4,54,35,19,29.81,29.68,11,1,12,0.00
2013-9-20,79.7,70.7,61.7,58.3,48.4,37.9,81,47,32,29.81,29.68,18,5,23,0.00
2013-9-21,67.8,60.3,55.6,57.9,54.6,50.5,93,82,59,29.85,29.76,16,2,20,0.38
2013-9-22,72.0,61.2,50.9,52.9,50.4,48.2,92,69,46,29.96,29.85,10,1,12,0.00
2013-9-23,81.5,67.1,54.0,55.4,51.8,48.0,81,60,38,29.98,29.87,11,1,15,0.00
2013-9-24,77.5,67.2,57.7,56.1,52.4,47.5,77,61,35,29.93,29.80,18,4,23,0.00
2013-9-25,70.0,60.7,53.4,50.7,44.2,34.5,84,58,28,29.87,29.76,10,2,19,0.00
2013-9-26,72.9,61.7,50.5,43.0,38.8,32.0,71,45,29,29.92,29.75,22,4,24,0.00
2013-9-27,77.2,62.8,47.5,43.0,36.6,32.4,63,40,22,30.06,29.92,10,1,12,0.00
2013-9-28,82.8,70.8,58.6,41.7,38.1,36.0,45,31,21,30.06,29.93,12,2,14,0.00
2013-9-29,76.5,66.3,57.2,57.2,52.4,38.5,83,62,37,30.07,29.98,17,3,19,0.00
2013-9-30,77.2,67.2,61.0,59.4,57.5,56.1,85,72,52,30.04,29.90,10,1,13,0.00
2013-10-1,76.5,64.7,53.6,57.6,49.3,43.2,91,61,31,29.96,29.86,13,1,17,0.00
2013-10-2,78.4,64.6,53.8,53.1,46.3,37.9,78,55,27,29.95,29.86,9,1,13,0.00
2013-10-3,76.6,62.3,49.8,45.5,35.2,22.1,69,41,16,29.99,29.84,19,5,23,0.00
2013-10-4,80.8,66.4,51.4,39.9,31.8,26.1,39,28,16,30.07,29.93,12,2,19,0.00
2013-10-5,82.8,69.1,56.7,37.9,30.7,20.5,35,24,16,30.18,30.06,9,0,10,0.00
2013-10-6,83.3,70.4,58.8,41.7,34.2,30.2,35,27,16,30.10,29.95,6,0,7,0.00
2013-10-7,83.8,70.9,59.7,39.9,33.8,29.5,35,26,17,29.95,29.80,8,0,10,0.00
2013-10-8,75.9,63.3,50.4,41.5,36.4,31.1,53,37,27,29.84,29.61,11,1,11,0.00
2013-10-9,71.2,60.7,51.6,43.0,40.5,35.8,67,48,34,29.71,29.54,9,1,15,0.00
2013-10-10,71.8,61.6,52.0,45.9,43.1,41.0,69,52,36,29.95,29.70,16,3,21,0.00
2013-10-11,75.2,63.1,50.2,46.6,43.8,40.8,71,50,35,30.03,29.91,10,0,13,0.00
2013-10-12,75.4,62.6,51.8,46.4,43.1,41.2,70,51,30,29.96,29.82,12,1,15,0.00
2013-10-13,73.8,60.0,46.2,45.7,42.3,38.7,88,55,29,30.00,29.84,11,2,14,0.00
2013-10-14,75.2,62.6,46.2,42.8,38.4,34.3,69,43,24,30.09,29.97,7,1,11,0.00
2013-10-15,79.5,64.2,48.7,42.3,36.4,32.0,68,39,18,30.01,29.90,9,2,12,0.00
2013-10-16,81.7,66.9,54.1,38.7,32.9,24.8,44,29,17,30.07,29.94,6,1,9,0.00
2013-10-17,79.2,65.3,50.5,43.2,36.8,33.3,59,37,19,30.04,29.92,7,1,11,0.00
2013-10-18,81.9,66.6,54.3,39.7,36.0,32.9,48,34,19,30.02,29.92,8,1,11,0.00
2013-10-19,83.3,67.6,54.0,43.0,38.1,35.4,54,36,19,30.04,29.95,3,1,7,0.00
2013-10-20,82.2,66.8,53.4,41.5,37.4,32.5,50,35,21,29.97,29.85,5,1,9,0.00
2013-10-21,81.1,67.0,52.5,44.4,40.4,37.0,59,39,24,29.95,29.85,6,1,8,0.00
2013-10-22,81.7,66.5,52.2,42.8,38.3,31.3,59,37,20,29.97,29.85,6,1,11,0.00
2013-10-23,81.5,66.3,50.7,42.4,35.8,31.5,57,34,17,29.90,29.81,5,1,7,0.00
2013-10-24,73.0,60.1,48.0,46.9,42.9,32.5,80,55,34,30.03,29.86,7,1,10,0.00
2013-10-25,74.8,60.0,47.7,47.1,43.1,37.6,82,57,28,30.13,30.02,6,1,9,0.00
2013-10-26,77.4,64.2,51.6,45.1,41.2,38.1,62,44,28,30.12,29.96,6,1,11,0.00
2013-10-27,73.9,60.2,51.6,46.9,40.9,34.7,76,51,28,29.96,29.55,17,5,21,0.00
2013-10-28,61.2,53.8,45.9,45.1,42.1,38.3,91,67,45,29.82,29.55,15,4,18,0.00
2013-10-29,63.9,56.1,52.3,46.0,43.9,41.0,74,64,48,30.00,29.82,10,2,12,0.00
2013-10-30,65.3,54.9,45.3,42.6,40.8,37.9,78,60,41,30.12,30.00,10,1,12,0.00
2013-10-31,70.0,58.1,47.1,43.5,41.5,39.4,75,56,37,30.15,30.04,12,1,15,0.00
2013-11-1,74.7,62.0,53.1,45.9,41.6,37.8,63,49,30,30.14,29.98,6,0,9,0.00
2013-11-2,74.5,63.1,54.7,47.3,41.1,34.2,70,46,32,29.99,29.83,10,1,14,0.00
2013-11-3,61.3,52.6,44.8,43.0,32.9,29.1,65,48,31,29.98,29.86,17,3,18,0.00
2013-11-4,65.5,52.7,39.4,37.2,30.9,23.5,70,46,27,30.02,29.84,20,3,23,0.00
2013-11-5,68.2,56.7,44.2,34.5,30.8,23.2,53,38,27,30.21,30.01,7,1,12,0.00
2013-11-6,71.2,60.7,50.7,38.5,35.4,32.7,52,40,27,30.24,30.14,10,0,11,0.00
2013-11-7,76.5,63.8,54.5,38.1,35.2,32.5,47,35,22,30.15,30.02,9,1,10,0.00
2013-11-8,73.4,62.2,52.7,41.4,36.7,32.0,54,39,28,30.04,29.91,5,0,8,0.00
2013-11-9,75.9,62.4,54.0,43.2,40.9,37.4,58,46,30,30.01,29.93,5,0,7,0.00
2013-11-10,74.8,62.1,53.4,42.1,39.2,34.5,57,44,28,30.07,29.98,10,0,12,0.00
2013-11-11,72.5,59.3,48.0,39.9,36.0,31.5,66,43,25,30.15,30.04,11,0,11,0.00
2013-11-12,68.5,61.5,55.8,42.3,37.7,32.7,50,42,33,30.23,30.11,10,0,14,0.00
2013-11-13,72.9,61.6,50.9,42.6,39.0,35.2,58,44,31,30.20,30.02,5,0,9,0.00
2013-11-14,67.5,60.5,50.0,45.9,42.4,39.2,79,52,40,30.05,29.78,10,1,12,0.00
2013-11-15,65.5,54.1,44.6,44.6,38.4,31.1,88,59,33,29.79,29.67,11,1,14,0.00
2013-11-16,63.3,54.7,47.8,41.5,37.6,33.4,64,53,42,29.89,29.71,12,1,14,0.00
2013-11-17,64.2,53.9,45.3,47.1,43.0,37.6,78,67,51,30.05,29.89,6,1,11,0.00
2013-11-18,63.1,53.8,47.8,46.2,43.6,41.0,83,69,48,30.12,30.03,9,1,14,0.00
2013-11-19,60.3,54.4,49.8,51.1,48.0,44.1,93,79,66,30.09,29.93,6,1,14,0.47
2013-11-20,55.0,53.4,52.2,53.6,51.6,50.2,95,94,91,29.94,29.81,14,1,17,0.45
2013-11-21,65.3,54.3,46.0,50.5,40.1,26.6,100,65,28,29.97,29.84,15,3,23,0.04
2013-11-22,69.8,56.6,47.1,44.8,25.8,12.7,86,36,12,30.01,29.89,21,4,28,0.00
2013-11-23,62.8,51.7,43.5,45.9,42.1,38.7,93,72,44,30.09,29.97,10,1,12,0.00
2013-11-24,63.3,53.4,43.5,44.2,41.5,36.7,80,65,48,30.22,30.08,9,1,11,0.00
2013-11-25,64.6,52.4,45.3,44.1,41.4,38.5,81,67,44,30.32,30.22,5,0,6,0.00
2013-11-26,62.1,52.6,45.7,44.6,42.4,40.1,81,69,51,30.25,30.03,5,0,7,0.00
2013-11-27,64.6,53.9,46.9,47.8,42.6,39.4,83,66,45,30.03,29.84,6,0,6,0.00
2013-11-28,69.6,58.0,49.5,42.4,39.2,35.1,69,50,35,30.04,29.85,6,0,9,0.00
2013-11-29,67.8,56.1,45.3,41.7,39.0,36.3,74,54,35,30.19,30.03,7,1,10,0.00
2013-11-30,65.5,54.0,46.2,43.7,40.1,37.6,75,60,39,30.24,30.15,7,1,10,0.00
2013-12-1,66.6,53.8,43.5,43.2,41.0,38.7,84,63,40,30.32,30.19,4,1,6,0.00
2013-12-2,67.3,55.3,47.3,47.3,43.3,39.7,84,65,42,30.20,29.88,16,3,21,0.00
2013-12-3,52.9,47.8,36.7,50.5,33.0,20.3,92,60,29,29.88,29.78,14,4,17,0.00
2013-12-4,46.8,36.1,25.5,26.1,20.4,16.9,81,54,31,30.05,29.88,5,0,5,0.00
2013-12-5,46.9,35.6,23.7,28.6,21.2,17.1,87,58,31,30.16,30.04,4,0,9,0.00
2013-12-6,45.9,40.1,35.8,34.3,26.9,19.4,90,60,46,30.18,29.91,20,4,25,0.36
2013-12-7,44.8,36.8,31.3,35.6,31.3,24.3,93,81,57,30.22,29.89,18,2,20,0.11
2013-12-8,41.4,33.2,25.3,27.3,24.3,21.4,87,70,53,30.30,30.21,5,0,8,0.00
2013-12-9,48.4,36.5,26.6,28.9,26.0,22.8,88,67,42,30.42,30.28,7,1,10,0.00
2013-12-10,53.8,41.0,31.6,30.4,27.6,25.3,79,60,34,30.42,30.20,4,0,5,0.00
2013-12-11,55.9,44.3,33.3,34.5,30.8,26.8,79,60,43,30.25,30.18,5,0,7,0.00
2013-12-12,60.3,47.4,38.8,33.6,31.1,26.6,68,54,34,30.26,30.14,4,0,5,0.00
2013-12-13,57.6,46.2,35.2,33.6,30.1,25.3,69,54,36,30.31,30.20,8,1,11,0.00
2013-12-14,59.5,49.2,40.8,34.5,32.1,29.5,65,52,36,30.40,30.30,5,1,7,0.00
2013-12-15,62.2,49.6,42.1,37.8,33.8,30.6,67,55,36,30.36,30.23,3,0,5,0.00
2013-12-16,65.1,51.7,43.0,39.7,36.7,33.3,71,57,39,30.24,30.12,6,0,8,0.00
2013-12-17,62.8,53.2,46.6,42.1,39.3,37.2,73,60,43,30.18,30.00,4,0,6,0.00
2013-12-18,61.0,52.9,46.0,44.1,40.9,38.1,83,64,48,30.02,29.68,10,1,11,0.00
2013-12-19,58.6,48.2,40.3,43.5,35.2,24.4,89,64,33,29.87,29.64,17,2,24,0.00
2013-12-20,57.4,44.7,32.5,35.2,27.4,21.7,68,52,26,29.99,29.86,5,1,7,0.00
2013-12-21,56.7,48.3,41.4,37.9,35.0,32.5,81,61,44,30.09,29.95,7,1,12,0.00
2013-12-22,61.7,49.9,41.9,39.4,36.4,34.2,76,61,41,30.28,30.08,5,0,10,0.00
2013-12-23,61.9,51.8,44.2,40.8,38.5,36.1,74,61,45,30.39,30.28,6,0,10,0.00
2013-12-24,64.2,52.6,44.4,40.8,39.1,36.5,77,61,41,30.30,30.19,7,1,8,0.00
2013-12-25,62.4,52.4,44.8,42.4,38.8,35.4,75,60,43,30.29,30.19,7,1,9,0.00
2013-12-26,66.6,54.6,46.8,39.6,34.8,31.8,62,48,31,30.26,30.16,5,0,6,0.00
2013-12-27,59.4,51.3,44.2,37.8,34.9,31.8,66,54,37,30.24,30.09,4,0,6,0.00
2013-12-28,64.0,50.0,38.8,35.4,31.4,25.5,71,50,31,30.10,29.98,13,1,14,0.00
2013-12-29,63.0,50.3,43.2,38.1,33.8,30.6,65,54,37,30.18,30.07,5,0,7,0.00
2013-12-30,63.1,50.9,39.4,38.3,34.0,29.5,69,53,37,30.24,30.17,4,0,5,0.00
2013-12-31,62.1,52.1,46.2,35.4,33.0,30.6,60,49,33,30.24,30.12,5,0,7,0.00
2014-1-1,64.0,52.8,43.5,35.2,32.6,30.2,60,47,32,30.20,30.10,8,1,10,0.00
2014-1-2,64.2,53.5,44.6,39.9,36.1,32.0,65,52,39,30.17,30.03,5,0,6,0.00